createdAt,value
2018-12-16T00:01:39.542Z,-3.40
2018-12-16T00:04:07.911Z,-3.30
2018-12-16T00:06:36.252Z,-3.50
2018-12-16T00:09:05.910Z,-3.20
2018-12-16T00:11:34.122Z,-3.30
2018-12-16T00:14:02.485Z,-3.60
2018-12-16T00:16:30.702Z,-3.50
2018-12-16T00:18:59.036Z,-3.60
2018-12-16T00:21:27.254Z,-3.50
2018-12-16T00:23:55.445Z,-3.70
2018-12-16T00:26:25.743Z,-3.70
2018-12-16T00:28:53.870Z,-3.60
2018-12-16T00:31:22.007Z,-3.60
2018-12-16T00:33:50.199Z,-3.50
2018-12-16T00:36:18.322Z,-3.60
2018-12-16T00:38:46.479Z,-3.50
2018-12-16T00:41:14.603Z,-3.60
2018-12-16T00:43:42.761Z,-3.60
2018-12-16T00:46:10.886Z,-3.50
2018-12-16T00:48:39.020Z,-3.60
2018-12-16T00:51:07.172Z,-3.50
2018-12-16T00:53:35.369Z,-3.70
2018-12-16T00:56:03.562Z,-3.30
2018-12-16T00:58:31.683Z,-3.60
2018-12-16T01:01:01.947Z,-3.50
2018-12-16T01:03:30.168Z,-3.50
2018-12-16T01:05:58.386Z,-3.50
2018-12-16T01:08:26.642Z,-3.60
2018-12-16T01:10:54.902Z,-3.50
2018-12-16T01:13:23.078Z,-3.50
2018-12-16T01:15:51.223Z,-3.30
2018-12-16T01:18:19.371Z,-3.40
2018-12-16T01:20:47.642Z,-3.60
2018-12-16T01:23:15.878Z,-3.60
2018-12-16T01:25:44.105Z,-3.50
2018-12-16T01:28:12.238Z,-3.50
2018-12-16T01:30:40.419Z,-3.50
2018-12-16T01:33:08.595Z,-3.50
2018-12-16T01:35:36.742Z,-3.70
2018-12-16T01:38:04.970Z,-3.70
2018-12-16T01:40:33.125Z,-3.70
2018-12-16T01:43:01.270Z,-3.40
2018-12-16T01:45:29.430Z,-3.50
2018-12-16T01:47:57.588Z,-3.40
2018-12-16T01:50:25.797Z,-3.50
2018-12-16T01:52:53.926Z,-3.60
2018-12-16T01:55:22.126Z,-3.60
2018-12-16T01:57:50.398Z,-3.50
2018-12-16T02:00:18.538Z,-3.50
2018-12-16T02:02:46.665Z,-3.50
2018-12-16T02:05:14.886Z,-3.60
2018-12-16T02:07:43.081Z,-3.50
2018-12-16T02:10:11.386Z,-3.80
2018-12-16T02:12:39.513Z,-3.50
2018-12-16T02:15:07.797Z,-3.70
2018-12-16T02:17:35.928Z,-3.70
2018-12-16T02:20:05.017Z,-3.60
2018-12-16T02:22:33.230Z,-3.50
2018-12-16T02:25:01.379Z,-3.80
2018-12-16T02:27:29.494Z,-3.40
2018-12-16T02:29:57.630Z,-3.40
2018-12-16T02:32:25.771Z,-3.50
2018-12-16T02:34:53.937Z,-3.40
2018-12-16T02:37:22.058Z,-3.50
2018-12-16T02:39:50.299Z,-3.50
2018-12-16T02:42:18.543Z,-3.60
2018-12-16T02:44:46.667Z,-3.50
2018-12-16T02:47:14.830Z,-3.70
2018-12-16T02:49:43.020Z,-3.50
2018-12-16T02:52:11.199Z,-3.50
2018-12-16T02:54:39.318Z,-3.60
2018-12-16T02:57:07.434Z,-3.60
2018-12-16T03:02:34.914Z,-3.70
2018-12-16T03:05:03.116Z,-3.70
2018-12-16T03:07:31.303Z,-3.70
2018-12-16T03:09:59.475Z,-3.60
2018-12-16T03:12:27.596Z,-3.60
2018-12-16T03:14:55.707Z,-3.70
2018-12-16T03:17:24.034Z,-3.40
2018-12-16T03:19:52.178Z,-3.80
2018-12-16T03:22:20.410Z,-3.50
2018-12-16T03:24:48.583Z,-3.40
2018-12-16T03:27:16.787Z,-3.50
2018-12-16T03:29:45.142Z,-3.60
2018-12-16T03:32:13.261Z,-3.70
2018-12-16T03:34:41.502Z,-3.60
2018-12-16T03:37:09.738Z,-3.60
2018-12-16T03:39:37.910Z,-3.50
2018-12-16T03:42:06.204Z,-3.70
2018-12-16T03:44:34.496Z,-3.40
2018-12-16T03:47:02.714Z,-3.50
2018-12-16T03:49:30.843Z,-3.70
2018-12-16T03:51:59.068Z,-3.60
2018-12-16T03:54:27.198Z,-3.50
2018-12-16T03:56:55.419Z,-3.60
2018-12-16T03:59:23.550Z,-3.50
2018-12-16T04:01:57.794Z,-3.70
2018-12-16T04:04:26.734Z,-3.40
2018-12-16T04:06:55.168Z,-3.50
2018-12-16T04:09:23.297Z,-3.40
2018-12-16T04:11:51.505Z,-3.50
2018-12-16T04:14:19.629Z,-3.40
2018-12-16T04:16:47.764Z,-3.50
2018-12-16T04:19:15.973Z,-3.80
2018-12-16T04:21:44.105Z,-3.50
2018-12-16T04:24:12.247Z,-3.50
2018-12-16T04:26:40.410Z,-3.30
2018-12-16T04:29:08.564Z,-3.60
2018-12-16T04:31:36.693Z,-3.50
2018-12-16T04:34:04.911Z,-3.70
2018-12-16T04:36:33.039Z,-3.70
2018-12-16T04:39:01.179Z,-3.70
2018-12-16T04:41:29.402Z,-3.30
2018-12-16T04:43:57.554Z,-3.30
2018-12-16T04:46:25.748Z,-3.30
2018-12-16T04:48:53.977Z,-3.40
2018-12-16T04:51:22.203Z,-3.30
2018-12-16T04:53:50.331Z,-3.30
2018-12-16T04:56:18.474Z,-3.30
2018-12-16T04:58:47.790Z,-3.40
2018-12-16T05:01:16.142Z,-3.30
2018-12-16T05:03:44.542Z,-3.40
2018-12-16T05:06:12.685Z,-3.40
2018-12-16T05:08:40.818Z,-3.20
2018-12-16T05:11:09.046Z,-3.30
2018-12-16T05:13:37.252Z,-3.50
2018-12-16T05:16:05.462Z,-3.40
2018-12-16T05:18:33.684Z,-3.40
2018-12-16T05:21:02.015Z,-3.30
2018-12-16T05:23:30.184Z,-3.20
2018-12-16T05:25:58.327Z,-3.20
2018-12-16T05:28:26.474Z,-3.20
2018-12-16T05:30:54.699Z,-3.20
2018-12-16T05:33:22.843Z,-3.20
2018-12-16T05:35:50.979Z,-3.30
2018-12-16T05:38:19.204Z,-3.30
2018-12-16T05:40:47.344Z,-3.30
2018-12-16T05:43:15.536Z,-3.40
2018-12-16T05:45:43.672Z,-3.30
2018-12-16T05:48:11.882Z,-3.40
2018-12-16T05:50:40.001Z,-3.30
2018-12-16T05:53:08.143Z,-3.40
2018-12-16T05:55:36.267Z,-3.30
2018-12-16T05:58:04.472Z,-3.40
2018-12-16T06:00:32.606Z,-3.30
2018-12-16T06:03:00.740Z,-3.20
2018-12-16T06:05:28.889Z,-3.30
2018-12-16T06:07:57.038Z,-3.10
2018-12-16T06:10:25.181Z,-3.00
2018-12-16T06:12:53.335Z,-3.20
2018-12-16T06:15:21.486Z,-3.20
2018-12-16T06:17:49.710Z,-3.10
2018-12-16T06:20:17.919Z,-3.00
2018-12-16T06:22:46.138Z,-3.20
2018-12-16T06:25:14.356Z,-3.10
2018-12-16T06:27:43.290Z,-3.00
2018-12-16T06:30:12.266Z,-3.40
2018-12-16T06:32:40.417Z,-3.30
2018-12-16T06:35:08.638Z,-3.20
2018-12-16T06:37:36.786Z,-3.10
2018-12-16T06:40:05.486Z,-3.10
2018-12-16T06:42:33.733Z,-3.00
2018-12-16T06:45:01.833Z,-3.30
2018-12-16T06:47:30.110Z,-3.40
2018-12-16T06:49:58.234Z,-3.20
2018-12-16T06:52:26.399Z,-3.30
2018-12-16T06:54:54.581Z,-3.10
2018-12-16T06:57:22.773Z,-3.00
2018-12-16T06:59:50.973Z,-3.20
2018-12-16T07:02:19.146Z,-3.10
2018-12-16T07:04:47.345Z,-3.00
2018-12-16T07:07:15.516Z,-3.10
2018-12-16T07:09:43.775Z,-3.10
2018-12-16T07:12:12.005Z,-3.00
2018-12-16T07:14:40.128Z,-3.30
2018-12-16T07:17:08.414Z,-3.10
2018-12-16T07:19:36.678Z,-3.10
2018-12-16T07:22:04.952Z,-3.00
2018-12-16T07:24:33.229Z,-3.50
2018-12-16T07:27:01.409Z,-3.50
2018-12-16T07:29:29.530Z,-3.50
2018-12-16T07:31:57.637Z,-3.10
2018-12-16T07:34:25.766Z,-3.20
2018-12-16T07:36:53.940Z,-3.40
2018-12-16T07:39:22.212Z,-3.30
2018-12-16T07:41:50.551Z,-3.30
2018-12-16T07:44:18.705Z,-3.40
2018-12-16T07:46:46.942Z,-3.20
2018-12-16T07:49:15.336Z,-3.10
2018-12-16T07:51:43.583Z,-3.10
2018-12-16T07:54:16.010Z,-3.00
2018-12-16T07:56:42.027Z,-3.20
2018-12-16T07:59:10.270Z,-3.10
2018-12-16T08:01:38.522Z,-3.00
2018-12-16T08:04:06.834Z,-3.20
2018-12-16T08:06:35.001Z,-2.90
2018-12-16T08:09:04.381Z,-2.80
2018-12-16T08:11:32.526Z,-2.80
2018-12-16T08:14:00.703Z,-3.00
2018-12-16T08:16:29.050Z,-2.80
2018-12-16T08:18:57.281Z,-2.80
2018-12-16T08:21:25.573Z,-3.00
2018-12-16T08:23:53.718Z,-2.90
2018-12-16T08:26:21.870Z,-2.80
2018-12-16T08:28:50.025Z,-2.80
2018-12-16T08:31:18.179Z,-3.10
2018-12-16T08:33:46.303Z,-2.70
2018-12-16T08:36:14.562Z,-2.60
2018-12-16T08:38:42.699Z,-2.80
2018-12-16T08:41:10.851Z,-2.60
2018-12-16T08:43:39.062Z,-2.90
2018-12-16T08:46:07.222Z,-2.70
2018-12-16T08:48:35.372Z,-2.60
2018-12-16T08:51:03.702Z,-2.60
2018-12-16T08:53:31.830Z,-2.50
2018-12-16T08:56:00.004Z,-2.60
2018-12-16T08:58:28.137Z,-2.90
2018-12-16T09:00:56.278Z,-2.70
2018-12-16T09:03:24.491Z,-2.80
2018-12-16T09:05:52.621Z,-2.60
2018-12-16T09:08:20.775Z,-2.90
2018-12-16T09:10:48.981Z,-2.70
2018-12-16T09:13:17.189Z,-2.70
2018-12-16T09:15:45.326Z,-2.60
2018-12-16T09:18:13.542Z,-2.60
2018-12-16T09:20:41.662Z,-2.50
2018-12-16T09:23:09.794Z,-2.40
2018-12-16T09:25:37.914Z,-2.30
2018-12-16T09:28:06.054Z,-2.40
2018-12-16T09:30:34.269Z,-2.20
2018-12-16T09:33:02.402Z,-2.30
2018-12-16T09:35:30.563Z,-2.40
2018-12-16T09:37:58.714Z,-2.10
2018-12-16T09:40:26.846Z,-2.00
2018-12-16T09:42:54.965Z,-2.40
2018-12-16T09:45:23.202Z,-2.30
2018-12-16T09:47:51.428Z,-2.20
2018-12-16T09:50:19.657Z,-2.20
2018-12-16T09:52:47.742Z,-2.20
2018-12-16T09:55:15.909Z,-2.10
2018-12-16T09:57:44.079Z,-2.10
2018-12-16T10:00:12.313Z,-2.20
2018-12-16T10:02:40.470Z,-2.20
2018-12-16T10:05:08.710Z,-2.20
2018-12-16T10:07:36.911Z,-2.00
2018-12-16T10:10:08.247Z,-2.30
2018-12-16T10:12:36.405Z,-2.20
2018-12-16T10:15:05.317Z,-2.30
2018-12-16T10:17:33.619Z,-2.10
2018-12-16T10:20:01.838Z,-2.00
2018-12-16T10:22:30.050Z,-2.30
2018-12-16T10:24:58.191Z,-2.20
2018-12-16T10:27:26.274Z,-2.10
2018-12-16T10:29:54.434Z,-2.40
2018-12-16T10:32:22.577Z,-2.30
2018-12-16T10:34:50.681Z,-2.30
2018-12-16T10:37:19.592Z,-2.30
2018-12-16T10:39:47.699Z,-2.20
2018-12-16T10:42:15.859Z,-2.10
2018-12-16T10:44:44.038Z,-2.00
2018-12-16T10:47:12.258Z,-2.00
2018-12-16T10:49:40.377Z,-2.10
2018-12-16T10:52:08.570Z,-1.80
2018-12-16T10:54:36.676Z,-2.00
2018-12-16T10:57:04.898Z,-1.90
2018-12-16T10:59:33.095Z,-2.10
2018-12-16T11:02:01.373Z,-1.80
2018-12-16T11:04:29.635Z,-2.00
2018-12-16T11:06:57.812Z,-2.20
2018-12-16T11:09:25.929Z,-2.20
2018-12-16T11:11:54.078Z,-2.20
2018-12-16T11:14:22.246Z,-2.20
2018-12-16T11:16:50.402Z,-2.00
2018-12-16T11:19:18.507Z,-2.20
2018-12-16T11:21:46.602Z,-2.50
2018-12-16T11:24:14.764Z,-2.20
2018-12-16T11:26:42.909Z,-2.10
2018-12-16T11:29:11.070Z,-2.50
2018-12-16T11:31:39.238Z,-2.20
2018-12-16T11:34:07.458Z,-2.10
2018-12-16T11:36:35.541Z,-2.30
2018-12-16T11:39:05.582Z,-2.20
2018-12-16T11:41:33.734Z,-2.20
2018-12-16T11:44:01.997Z,-2.20
2018-12-16T11:46:30.420Z,-2.20
2018-12-16T11:48:58.517Z,-2.20
2018-12-16T11:51:26.838Z,-2.20
2018-12-16T11:53:54.951Z,-2.10
2018-12-16T11:56:23.116Z,-2.10
2018-12-16T11:58:51.303Z,-2.00
2018-12-16T12:01:19.718Z,-2.20
2018-12-16T12:03:47.865Z,-2.10
2018-12-16T12:06:16.049Z,-2.30
2018-12-16T12:08:44.174Z,-2.20
2018-12-16T12:11:12.474Z,-2.10
2018-12-16T12:13:40.594Z,-2.20
2018-12-16T12:16:08.756Z,-2.10
2018-12-16T12:18:36.874Z,-2.20
2018-12-16T12:21:05.072Z,-2.30
2018-12-16T12:23:33.274Z,-2.00
2018-12-16T12:26:01.410Z,-1.80
2018-12-16T12:28:29.626Z,-2.10
2018-12-16T12:30:57.913Z,-1.90
2018-12-16T12:33:26.034Z,-2.10
2018-12-16T12:35:54.162Z,-1.90
2018-12-16T12:38:22.282Z,-1.90
2018-12-16T12:40:50.426Z,-1.80
2018-12-16T12:43:18.622Z,-2.20
2018-12-16T12:45:46.774Z,-2.20
2018-12-16T12:48:14.898Z,-2.30
2018-12-16T12:50:43.030Z,-2.30
2018-12-16T12:53:11.159Z,-2.20
2018-12-16T12:55:39.366Z,-2.10
2018-12-16T12:58:07.486Z,-2.00
2018-12-16T13:00:35.692Z,-2.20
2018-12-16T13:03:03.895Z,-2.00
2018-12-16T13:05:36.953Z,-2.30
2018-12-16T13:08:02.864Z,-2.20
2018-12-16T13:10:31.068Z,-2.20
2018-12-16T13:12:59.186Z,-2.10
2018-12-16T13:15:27.380Z,-2.40
2018-12-16T13:17:55.507Z,-2.10
2018-12-16T13:20:23.705Z,-2.50
2018-12-16T13:22:51.918Z,-2.50
2018-12-16T13:25:34.899Z,-2.40
2018-12-16T13:28:01.604Z,-2.40
2018-12-16T13:30:29.735Z,-2.30
2018-12-16T13:32:57.930Z,-2.40
2018-12-16T13:35:26.066Z,-2.30
2018-12-16T13:37:54.210Z,-2.40
2018-12-16T13:40:22.427Z,-2.30
2018-12-16T13:42:50.700Z,-2.40
2018-12-16T13:45:18.913Z,-2.60
2018-12-16T13:47:47.090Z,-2.30
2018-12-16T13:50:15.318Z,-2.40
2018-12-16T13:52:43.422Z,-2.40
2018-12-16T13:55:11.643Z,-2.40
2018-12-16T13:57:40.294Z,-2.40
2018-12-16T14:00:08.937Z,-2.70
2018-12-16T14:02:37.118Z,-2.60
2018-12-16T14:05:06.233Z,-2.40
2018-12-16T14:07:34.402Z,-2.50
2018-12-16T14:10:02.550Z,-2.70
2018-12-16T14:12:30.689Z,-2.60
2018-12-16T14:14:59.254Z,-2.50
2018-12-16T14:17:27.429Z,-2.60
2018-12-16T14:19:55.518Z,-2.60
2018-12-16T14:22:23.618Z,-2.50
2018-12-16T14:24:52.862Z,-3.00
2018-12-16T14:27:20.958Z,-2.80
2018-12-16T14:29:49.144Z,-2.90
2018-12-16T14:32:17.286Z,-2.90
2018-12-16T14:34:45.507Z,-2.80
2018-12-16T14:37:13.614Z,-2.80
2018-12-16T14:39:41.702Z,-3.00
2018-12-16T14:42:09.880Z,-2.80
2018-12-16T14:44:37.990Z,-3.00
2018-12-16T14:47:06.096Z,-2.80
2018-12-16T14:49:34.190Z,-3.10
2018-12-16T14:52:02.478Z,-2.80
2018-12-16T14:54:30.714Z,-3.10
2018-12-16T14:56:59.554Z,-3.20
2018-12-16T14:59:27.642Z,-2.90
2018-12-16T15:01:55.752Z,-2.80
2018-12-16T15:04:24.022Z,-2.90
2018-12-16T15:06:52.178Z,-2.80
2018-12-16T15:09:20.638Z,-3.10
2018-12-16T15:11:48.799Z,-2.90
2018-12-16T15:14:16.903Z,-2.90
2018-12-16T15:16:44.991Z,-2.90
2018-12-16T15:19:13.226Z,-2.80
2018-12-16T15:21:41.330Z,-2.80
2018-12-16T15:24:09.430Z,-3.20
2018-12-16T15:26:37.582Z,-3.20
2018-12-16T15:29:05.754Z,-3.10
2018-12-16T15:31:33.910Z,-3.00
2018-12-16T15:34:02.786Z,-2.80
2018-12-16T15:36:30.946Z,-2.80
2018-12-16T15:38:59.050Z,-3.10
2018-12-16T15:41:27.173Z,-2.90
2018-12-16T15:43:55.270Z,-2.80
2018-12-16T15:46:23.450Z,-2.80
2018-12-16T15:48:51.555Z,-2.90
2018-12-16T15:51:19.709Z,-2.90
2018-12-16T15:53:47.806Z,-2.90
2018-12-16T15:56:16.110Z,-2.80
2018-12-16T15:58:44.346Z,-3.10
2018-12-16T16:01:12.446Z,-2.80
2018-12-16T16:03:40.618Z,-2.80
2018-12-16T16:06:08.850Z,-2.80
2018-12-16T16:08:37.131Z,-2.80
2018-12-16T16:11:05.294Z,-3.10
2018-12-16T16:13:33.470Z,-2.80
2018-12-16T16:16:01.841Z,-3.10
2018-12-16T16:18:30.020Z,-2.90
2018-12-16T16:20:58.103Z,-2.90
2018-12-16T16:23:26.266Z,-2.80
2018-12-16T16:25:55.185Z,-2.80
2018-12-16T16:28:23.358Z,-2.80
2018-12-16T16:30:51.606Z,-2.80
2018-12-16T16:33:19.851Z,-2.70
2018-12-16T16:35:48.087Z,-2.90
2018-12-16T16:38:16.263Z,-2.80
2018-12-16T16:40:44.502Z,-2.70
2018-12-16T16:43:12.660Z,-2.80
2018-12-16T16:45:40.889Z,-2.70
2018-12-16T16:48:09.042Z,-2.70
2018-12-16T16:50:37.137Z,-2.80
2018-12-16T16:53:06.244Z,-2.80
2018-12-16T16:55:34.466Z,-2.70
2018-12-16T16:58:02.634Z,-2.80
2018-12-16T17:00:30.911Z,-2.70
2018-12-16T17:02:59.117Z,-2.80
2018-12-16T17:05:27.406Z,-3.00
2018-12-16T17:07:55.561Z,-3.10
2018-12-16T17:10:23.786Z,-3.00
2018-12-16T17:12:51.962Z,-3.10
2018-12-16T17:15:20.134Z,-2.90
2018-12-16T17:17:48.293Z,-2.80
2018-12-16T17:20:16.474Z,-3.10
2018-12-16T17:22:44.602Z,-2.70
2018-12-16T17:25:12.767Z,-2.60
2018-12-16T17:27:40.876Z,-3.10
2018-12-16T17:30:10.795Z,-2.70
2018-12-16T17:32:38.892Z,-2.60
2018-12-16T17:35:07.195Z,-2.90
2018-12-16T17:37:35.379Z,-2.70
2018-12-16T17:40:03.975Z,-2.70
2018-12-16T17:42:32.143Z,-2.70
2018-12-16T17:45:00.322Z,-2.70
2018-12-16T17:47:28.486Z,-2.60
2018-12-16T17:49:56.662Z,-2.60
2018-12-16T17:52:24.915Z,-2.90
2018-12-16T17:54:53.082Z,-3.00
2018-12-16T17:57:21.239Z,-2.50
2018-12-16T17:59:49.330Z,-2.60
2018-12-16T18:02:17.435Z,-2.50
2018-12-16T18:04:45.537Z,-2.60
2018-12-16T18:07:13.698Z,-2.90
2018-12-16T18:09:41.868Z,-2.70
2018-12-16T18:12:10.079Z,-2.70
2018-12-16T18:14:38.187Z,-2.60
2018-12-16T18:17:09.728Z,-2.60
2018-12-16T18:19:37.845Z,-2.50
2018-12-16T18:22:06.008Z,-2.60
2018-12-16T18:24:34.131Z,-2.50
2018-12-16T18:27:02.310Z,-2.60
2018-12-16T18:29:30.487Z,-2.40
2018-12-16T18:31:58.653Z,-2.50
2018-12-16T18:34:26.881Z,-2.60
2018-12-16T18:36:55.121Z,-2.60
2018-12-16T18:39:23.347Z,-2.60
2018-12-16T18:41:51.634Z,-2.40
2018-12-16T18:44:19.794Z,-2.80
2018-12-16T18:46:47.907Z,-2.50
2018-12-16T18:49:16.078Z,-2.50
2018-12-16T18:51:44.268Z,-2.40
2018-12-16T18:54:12.487Z,-2.40
2018-12-16T18:56:40.735Z,-2.70
2018-12-16T18:59:08.970Z,-2.50
2018-12-16T19:01:37.078Z,-2.40
2018-12-16T19:04:05.322Z,-2.60
2018-12-16T19:06:33.654Z,-2.40
2018-12-16T19:09:02.513Z,-2.50
2018-12-16T19:11:30.610Z,-2.40
2018-12-16T19:13:58.715Z,-2.30
2018-12-16T19:16:26.886Z,-2.40
2018-12-16T19:18:55.429Z,-2.50
2018-12-16T19:21:23.766Z,-2.40
2018-12-16T19:23:51.957Z,-2.30
2018-12-16T19:26:20.139Z,-2.50
2018-12-16T19:28:48.293Z,-2.40
2018-12-16T19:31:16.466Z,-2.60
2018-12-16T19:33:44.630Z,-2.30
2018-12-16T19:36:12.763Z,-2.60
2018-12-16T19:38:40.879Z,-2.40
2018-12-16T19:41:08.998Z,-2.60
2018-12-16T19:43:37.097Z,-2.30
2018-12-16T19:46:05.367Z,-2.40
2018-12-16T19:48:33.550Z,-2.50
2018-12-16T19:51:01.733Z,-2.40
2018-12-16T19:53:29.823Z,-2.40
2018-12-16T19:55:57.993Z,-2.20
2018-12-16T19:58:26.526Z,-2.20
2018-12-16T20:00:54.753Z,-2.60
2018-12-16T20:03:22.865Z,-2.20
2018-12-16T20:05:56.514Z,-2.40
2018-12-16T20:08:24.618Z,-2.40
2018-12-16T20:10:52.770Z,-2.50
2018-12-16T20:13:20.946Z,-2.50
2018-12-16T20:15:49.058Z,-2.60
2018-12-16T20:18:17.167Z,-2.10
2018-12-16T20:20:45.288Z,-2.40
2018-12-16T20:23:13.410Z,-2.20
2018-12-16T20:25:41.502Z,-2.40
2018-12-16T20:28:09.602Z,-2.20
2018-12-16T20:30:37.823Z,-2.30
2018-12-16T20:33:06.059Z,-2.00
2018-12-16T20:35:34.965Z,-2.30
2018-12-16T20:38:03.139Z,-2.10
2018-12-16T20:40:31.321Z,-2.30
2018-12-16T20:42:59.510Z,-2.10
2018-12-16T20:45:27.682Z,-2.10
2018-12-16T20:47:55.922Z,-2.20
2018-12-16T20:50:24.080Z,-2.10
2018-12-16T20:52:52.223Z,-2.30
2018-12-16T20:55:20.377Z,-2.20
2018-12-16T20:57:48.479Z,-2.30
2018-12-16T21:00:16.646Z,-2.20
2018-12-16T21:02:44.759Z,-2.20
2018-12-16T21:05:12.977Z,-2.10
2018-12-16T21:07:41.087Z,-1.90
2018-12-16T21:10:09.425Z,-1.90
2018-12-16T21:12:42.868Z,-2.00
2018-12-16T21:15:16.396Z,-2.00
2018-12-16T21:17:49.957Z,-2.00
2018-12-16T21:20:18.060Z,-1.90
2018-12-16T21:22:46.328Z,-2.00
2018-12-16T21:25:14.494Z,-1.90
2018-12-16T21:27:42.778Z,-2.10
2018-12-16T21:30:11.011Z,-2.00
2018-12-16T21:32:39.122Z,-2.40
2018-12-16T21:35:07.354Z,-1.80
2018-12-16T21:37:35.451Z,-1.90
2018-12-16T21:40:03.716Z,-2.10
2018-12-16T21:42:31.811Z,-1.80
2018-12-16T21:45:00.022Z,-1.90
2018-12-16T21:47:28.190Z,-2.00
2018-12-16T21:49:56.378Z,-1.90
2018-12-16T21:52:24.545Z,-2.00
2018-12-16T21:54:52.670Z,-1.90
2018-12-16T21:57:20.830Z,-2.00
2018-12-16T21:59:49.173Z,-2.10
2018-12-16T22:02:17.283Z,-2.00
2018-12-16T22:04:45.399Z,-1.80
2018-12-16T22:07:13.661Z,-2.00
2018-12-16T22:09:41.773Z,-2.00
2018-12-16T22:12:09.866Z,-2.00
2018-12-16T22:14:37.982Z,-2.10
2018-12-16T22:17:06.147Z,-2.10
2018-12-16T22:19:34.257Z,-1.90
2018-12-16T22:22:02.533Z,-2.00
2018-12-16T22:24:30.720Z,-1.80
2018-12-16T22:26:58.810Z,-1.90
2018-12-16T22:29:26.922Z,-1.90
2018-12-16T22:31:55.068Z,-2.00
2018-12-16T22:34:23.188Z,-1.90
2018-12-16T22:36:51.285Z,-1.80
2018-12-16T22:39:19.406Z,-1.90
2018-12-16T22:41:47.585Z,-1.80
2018-12-16T22:44:15.826Z,-1.50
2018-12-16T22:46:44.228Z,-1.80
2018-12-16T22:49:12.399Z,-1.60
2018-12-16T22:51:40.616Z,-1.60
2018-12-16T22:54:08.714Z,-1.50
2018-12-16T22:56:36.819Z,-1.60
2018-12-16T22:59:05.071Z,-1.70
2018-12-16T23:01:33.294Z,-1.70
2018-12-16T23:04:01.603Z,-1.50
2018-12-16T23:06:29.707Z,-1.80
2018-12-16T23:08:57.881Z,-1.80
2018-12-16T23:11:26.056Z,-1.60
2018-12-16T23:13:54.230Z,-1.70
2018-12-16T23:16:22.455Z,-1.70
2018-12-16T23:18:50.694Z,-1.80
2018-12-16T23:21:18.816Z,-1.70
2018-12-16T23:23:47.042Z,-1.80
2018-12-16T23:26:15.226Z,-1.70
2018-12-16T23:28:43.394Z,-1.70
2018-12-16T23:31:11.570Z,-1.50
2018-12-16T23:33:39.710Z,-1.60
2018-12-16T23:36:07.941Z,-1.50
2018-12-16T23:38:36.104Z,-1.40
2018-12-16T23:41:04.291Z,-1.40
2018-12-16T23:43:32.386Z,-1.50
2018-12-16T23:46:00.566Z,-1.50
2018-12-16T23:48:28.744Z,-1.50
2018-12-16T23:50:56.857Z,-1.40
2018-12-16T23:53:24.958Z,-1.30
2018-12-16T23:55:53.134Z,-1.40
2018-12-16T23:58:21.247Z,-1.40
